Thunder radar more information blitzortung!


Radar de pluja more information rain snow radar


Visita la nostra xarxa de llocs de meteo:

Template documentation
and downloads

And another site



Extreme low temperature From: 23-02-2018 09:00 Until: 09:59 warning for: Extreme low temperature Level: Yellow info button

Pagina Historial Weather Underground text

Diari Resum Desembre 13, 2017 Unitats:  Imperial    Mètric   Tant
« Previous Dia
SegĂźent Dia »
Diari Setmana Mensual Anual Personalitzada
  Maxima: Minima: Media:
Temperatura: TemperatureC °F 0.5 °F 7.8 °F
Punt de rosada: DewpointC °F -4.6 °F -0.7 °F
Humitat: Humidity % 50 % 55 %
Wind Speed: WindSpeedKMH mph 0.0 mph 5.5 mph
RĂ fegues de vent: WindSpeedGustKMH mph - -
Vent:- - SW
Pression baro: PressurehPa in 1014.8 in -
Precipitacions: 0.0 in    
Historical Graphs
 
 
Dades de taula per Desembre 13, 2017
Temps Temperatura Punt de rosada Pression baro Vent Wind Speed RĂ fegues de vent Humitat Rainfall Rate (Hourly)
TemperatureC °F DewpointC °F PressurehPa in Calm     Humidity % HourlyPrecipMM in
00:45 0.8 °F -4.2 °F 1022.9 in WNW 1.6 mph 3.2 mph 69 % 0.0 in
00:55 0.9 °F -4.2 °F 1022.9 in NNW 1.6 mph 3.2 mph 69 % 0.0 in
01:05 1.0 °F -4.1 °F 1022.9 in North 1.6 mph 3.2 mph 69 % 0.0 in
01:15 0.9 °F -4.2 °F 1022.9 in North 1.6 mph 4.8 mph 69 % 0.0 in
01:25 0.9 °F -4.2 °F 1022.9 in NE 1.6 mph 1.6 mph 69 % 0.0 in
01:45 0.5 °F -4.6 °F 1022.9 in Calm   3.2 mph 69 % 0.0 in
01:55 0.7 °F -4.3 °F 1022.9 in WNW 1.6 mph 3.2 mph 69 % 0.0 in
02:05 0.7 °F -4.3 °F 1022.9 in Calm   3.2 mph 69 % 0.0 in
02:15 0.8 °F -4.2 °F 1022.9 in North 3.2 mph 4.8 mph 69 % 0.0 in
02:25 1.2 °F -3.9 °F 1023.9 in Calm   1.6 mph 69 % 0.0 in
02:35 1.6 °F -3.3 °F 1022.9 in Calm   1.6 mph 70 % 0.0 in
02:55 2.5 °F -2.6 °F 1023.9 in WNW 1.6 mph 1.6 mph 69 % 0.0 in
03:25 4.1 °F -1.5 °F 1023.9 in NW 1.6 mph 3.2 mph 67 % 0.0 in
03:45 4.6 °F -1.4 °F 1023.9 in NNE 3.2 mph 3.2 mph 65 % 0.0 in
03:55 4.7 °F -1.6 °F 1023.9 in North 1.6 mph 3.2 mph 64 % 0.0 in
04:15 4.8 °F -1.4 °F 1022.9 in NW 1.6 mph 3.2 mph 64 % 0.0 in
04:45 7.0 °F 0.4 °F 1023.9 in Calm   3.2 mph 63 % 0.0 in
10:51 6.7 °F 0.2 °F 1022.9 in South 3.7 mph   63 % 0.0 in
10:53 6.8 °F 0.2 °F 1022.9 in Calm     63 % 0.0 in
10:58 6.9 °F 0.3 °F 1023.9 in ENE 2.6 mph   63 % 0.0 in
10:59 6.9 °F 0.3 °F 1023.9 in ENE 3.2 mph 3.2 mph 63 % 0.0 in
11:09 7.2 °F 0.4 °F 1023.9 in SW 1.9 mph 1.9 mph 62 % 0.0 in
11:19 7.7 °F 0.9 °F 1023.9 in West 3.7 mph 3.7 mph 62 % 0.0 in
11:24 7.8 °F 0.9 °F 1023.9 in West 11.1 mph 11.1 mph 62 % 0.0 in
11:34 7.8 °F 0.7 °F 1023.9 in SW 7.4 mph 7.4 mph 61 % 0.0 in
11:39 7.8 °F 0.7 °F 1023.9 in WSW 7.4 mph 7.4 mph 61 % 0.0 in
11:49 8.0 °F 0.7 °F 1023.9 in WSW 4.7 mph 4.7 mph 60 % 0.0 in
11:54 8.1 °F 0.8 °F 1023.9 in West 3.7 mph 3.7 mph 60 % 0.0 in
11:59 8.1 °F 0.8 °F 1022.9 in West 3.7 mph 3.9 mph 60 % 0.0 in
12:04 8.4 °F 1.1 °F 1022.9 in West 7.4 mph 7.4 mph 60 % 0.0 in
12:14 8.6 °F 1.1 °F 1022.9 in West 3.7 mph 4.2 mph 59 % 0.0 in
12:19 8.7 °F 0.9 °F 1022.9 in SW 3.9 mph 3.9 mph 58 % 0.0 in
12:24 8.7 °F 0.9 °F 1022.9 in North 7.4 mph 7.4 mph 58 % 0.0 in
12:29 8.8 °F 0.7 °F 1022.9 in WSW 7.4 mph 7.4 mph 57 % 0.0 in
12:34 8.9 °F 0.8 °F 1022.9 in SW 14.8 mph 14.8 mph 57 % 0.0 in
12:39 9.0 °F 0.7 °F 1022.9 in NNW 13.0 mph 13.0 mph 56 % 0.0 in
12:44 9.2 °F 0.6 °F 1022.9 in SW 11.1 mph 11.1 mph 55 % 0.0 in
12:49 9.5 °F 0.9 °F 1022.9 in WSW 7.4 mph 7.4 mph 55 % 0.0 in
12:54 10.1 °F 1.4 °F 1022.9 in WNW 5.6 mph 5.6 mph 55 % 0.0 in
12:59 10.4 °F 1.7 °F 1021.9 in West 5.6 mph 5.6 mph 55 % 0.0 in
13:09 10.7 °F 1.8 °F 1021.9 in WSW 7.4 mph 7.4 mph 54 % 0.0 in
13:19 10.6 °F 1.7 °F 1021.9 in NE 9.7 mph 9.7 mph 54 % 0.0 in
13:24 10.9 °F 1.9 °F 1021.9 in WNW 11.1 mph 11.1 mph 54 % 0.0 in
13:34 11.3 °F 2.1 °F 1021.9 in West 6.1 mph 6.1 mph 53 % 0.0 in
13:44 11.1 °F 1.6 °F 1021.9 in NNW 7.4 mph 7.4 mph 52 % 0.0 in
13:49 11.2 °F 1.7 °F 1021.9 in WSW 11.1 mph 11.1 mph 52 % 0.0 in
13:54 11.2 °F 1.7 °F 1021.9 in SW 13.0 mph 13.0 mph 52 % 0.0 in
13:59 11.2 °F 1.4 °F 1021.9 in WNW 9.3 mph 9.3 mph 51 % 0.0 in
14:04 11.1 °F 1.3 °F 1021.9 in WSW 14.8 mph 14.8 mph 51 % 0.0 in
14:09 11.0 °F 1.2 °F 1021.9 in South 9.5 mph 9.5 mph 51 % 0.0 in
14:14 10.9 °F 1.2 °F 1021.9 in WNW 9.3 mph 9.5 mph 51 % 0.0 in
14:19 10.8 °F 1.1 °F 1021.9 in West 11.1 mph 11.1 mph 51 % 0.0 in
14:24 10.6 °F 0.6 °F 1021.9 in West 13.0 mph 13.0 mph 50 % 0.0 in
14:39 10.6 °F 0.6 °F 1020.9 in West 5.6 mph 5.6 mph 50 % 0.0 in
14:44 10.8 °F 1.1 °F 1020.9 in WSW 9.5 mph 9.5 mph 51 % 0.0 in
14:59 10.2 °F 0.2 °F 1020.9 in WNW 7.4 mph 7.4 mph 50 % 0.0 in
15:09 9.9 °F -0.1 °F 1020.9 in West 7.4 mph 7.4 mph 50 % 0.0 in
15:19 9.6 °F -0.3 °F 1020.9 in WNW 5.6 mph 5.6 mph 50 % 0.0 in
15:24 9.6 °F -0.3 °F 1020.9 in SW 5.6 mph 5.6 mph 50 % 0.0 in
15:30 9.5 °F -0.4 °F 1020.9 in WNW 10.0 mph 10.0 mph 50 % 0.0 in
15:35 9.4 °F -0.5 °F 1020.9 in West 7.4 mph 7.9 mph 50 % 0.0 in
15:40 9.4 °F -0.5 °F 1020.9 in West 9.3 mph 9.3 mph 50 % 0.0 in
15:45 9.4 °F -0.5 °F 1020.9 in WSW 5.6 mph 5.6 mph 50 % 0.0 in
15:50 9.4 °F -0.5 °F 1020.9 in WSW 1.9 mph 5.0 mph 50 % 0.0 in
15:55 9.5 °F -0.2 °F 1020.9 in WSW 5.6 mph 5.6 mph 51 % 0.0 in
16:00 9.5 °F -0.4 °F 1019.9 in West 5.0 mph 5.0 mph 50 % 0.0 in
16:05 9.5 °F -0.4 °F 1019.9 in WSW 5.8 mph 5.8 mph 50 % 0.0 in
16:10 9.4 °F -0.5 °F 1019.9 in West 7.4 mph 7.4 mph 50 % 0.0 in
16:15 9.5 °F -0.4 °F 1019.9 in SW 5.8 mph 5.8 mph 50 % 0.0 in
16:20 9.5 °F -0.2 °F 1019.9 in WSW 3.9 mph 3.9 mph 51 % 0.0 in
16:25 9.4 °F -0.2 °F 1019.9 in West 3.9 mph 3.9 mph 51 % 0.0 in
16:30 9.4 °F -0.2 °F 1019.9 in WSW 3.7 mph 3.7 mph 51 % 0.0 in
16:35 9.3 °F -0.3 °F 1019.9 in WSW 5.6 mph 5.6 mph 51 % 0.0 in
16:40 9.2 °F -0.4 °F 1019.9 in WSW 4.7 mph 4.7 mph 51 % 0.0 in
16:50 9.1 °F -0.5 °F 1019.9 in WSW 5.6 mph 5.6 mph 51 % 0.0 in
17:00 9.0 °F -0.6 °F 1019.9 in West 3.7 mph 3.7 mph 51 % 0.0 in
17:10 8.8 °F -0.8 °F 1019.9 in West 3.7 mph 4.2 mph 51 % 0.0 in
17:20 8.7 °F -0.9 °F 1019.9 in WSW 5.8 mph 5.8 mph 51 % 0.0 in
17:25 8.7 °F -0.9 °F 1019.9 in West 5.6 mph 5.6 mph 51 % 0.0 in
17:30 8.7 °F -0.9 °F 1019.9 in West 5.6 mph 5.6 mph 51 % 0.0 in
17:35 8.7 °F -0.9 °F 1019.9 in West 5.8 mph 5.8 mph 51 % 0.0 in
17:40 8.6 °F -1.0 °F 1019.9 in West 7.4 mph 7.4 mph 51 % 0.0 in
17:45 8.5 °F -1.1 °F 1019.9 in West 4.7 mph 4.7 mph 51 % 0.0 in
17:50 8.5 °F -1.1 °F 1019.9 in WSW 7.4 mph 7.4 mph 51 % 0.0 in
17:55 8.4 °F -1.2 °F 1019.9 in WNW 3.7 mph 3.7 mph 51 % 0.0 in
18:00 8.3 °F -1.3 °F 1019.9 in WNW 3.2 mph 3.2 mph 51 % 0.0 in
18:10 8.2 °F -1.3 °F 1019.9 in West 5.8 mph 5.8 mph 51 % 0.0 in
18:15 8.2 °F -1.3 °F 1019.9 in West 6.1 mph 6.1 mph 51 % 0.0 in
18:20 8.2 °F -1.3 °F 1019.9 in West 7.4 mph 7.4 mph 51 % 0.0 in
18:25 8.1 °F -1.4 °F 1019.9 in SW 6.1 mph 6.1 mph 51 % 0.0 in
18:30 8.1 °F -1.4 °F 1019.9 in West 5.6 mph 6.1 mph 51 % 0.0 in
18:35 8.1 °F -1.4 °F 1019.9 in WSW 6.1 mph 6.4 mph 51 % 0.0 in
18:40 8.1 °F -1.4 °F 1019.9 in West 7.4 mph 7.4 mph 51 % 0.0 in
18:45 8.1 °F -1.4 °F 1019.9 in ENE 7.4 mph 7.4 mph 51 % 0.0 in
18:50 8.1 °F -1.4 °F 1019.9 in SW 5.6 mph 5.6 mph 51 % 0.0 in
18:55 8.2 °F -1.3 °F 1019.9 in WSW 7.4 mph 7.4 mph 51 % 0.0 in
19:00 8.2 °F -1.3 °F 1019.9 in WSW 7.4 mph 7.4 mph 51 % 0.0 in
19:05 8.2 °F 0.2 °F 1017.8 in West 8.0 mph 11.3 mph 57 % 0.0 in
19:10 8.1 °F -1.4 °F 1019.9 in West 5.6 mph 5.6 mph 51 % 0.0 in
19:15 8.1 °F -1.4 °F 1019.9 in West 6.1 mph 6.1 mph 51 % 0.0 in
19:20 8.0 °F -1.6 °F 1019.9 in NW 3.9 mph 3.9 mph 51 % 0.0 in
19:25 8.0 °F -1.6 °F 1019.9 in West 3.7 mph 3.9 mph 51 % 0.0 in
19:35 9.1 °F 0.8 °F 1016.8 in West 9.7 mph 17.7 mph 56 % 0.0 in
19:40 7.6 °F -1.9 °F 1019.9 in SW 3.9 mph 3.9 mph 51 % 0.0 in
19:45 7.4 °F -2.1 °F 1018.8 in WSW 4.2 mph 4.2 mph 51 % 0.0 in
19:50 7.4 °F -2.1 °F 1018.8 in West 5.8 mph 5.8 mph 51 % 0.0 in
19:55 7.5 °F -2.0 °F 1018.8 in WSW 5.8 mph 6.1 mph 51 % 0.0 in
20:00 7.5 °F -2.0 °F 1019.9 in WNW 7.4 mph 7.4 mph 51 % 0.0 in
20:05 7.5 °F -2.0 °F 1019.9 in NNW 5.6 mph 5.6 mph 51 % 0.0 in
20:15 7.6 °F -1.7 °F 1019.9 in WNW 5.6 mph 5.6 mph 52 % 0.0 in
20:20 7.6 °F -1.7 °F 1019.9 in WNW 3.7 mph 3.7 mph 52 % 0.0 in
20:25 9.2 °F 0.6 °F 1015.8 in WSW 3.2 mph 4.8 mph 55 % 0.0 in
20:30 7.6 °F -1.7 °F 1019.9 in WNW 5.6 mph 5.6 mph 52 % 0.0 in
20:35 8.4 °F -0.1 °F 1015.8 in SW 3.2 mph 4.8 mph 55 % 0.0 in
20:40 7.5 °F -1.7 °F 1019.9 in NNW 5.0 mph 5.0 mph 52 % 0.0 in
20:45 8.0 °F -0.5 °F 1015.8 in Calm   4.8 mph 55 % 0.0 in
20:50 7.4 °F -1.8 °F 1018.8 in WSW 1.9 mph 1.9 mph 52 % 0.0 in
20:55 7.4 °F -1.8 °F 1018.8 in WSW 3.2 mph 3.2 mph 52 % 0.0 in
21:00 7.3 °F -1.9 °F 1018.8 in West 3.7 mph 3.7 mph 52 % 0.0 in
21:05 7.2 °F -2.0 °F 1018.8 in SW 5.6 mph 5.6 mph 52 % 0.0 in
21:15 7.2 °F -2.0 °F 1018.8 in SSW 3.7 mph 3.7 mph 52 % 0.0 in
21:20 7.2 °F -2.0 °F 1018.8 in WSW 3.7 mph 3.7 mph 52 % 0.0 in
21:25 7.3 °F -1.9 °F 1018.8 in NNW 6.1 mph 6.1 mph 52 % 0.0 in
21:30 7.3 °F -1.9 °F 1019.9 in WNW 5.6 mph 5.6 mph 52 % 0.0 in
21:35 7.3 °F -1.9 °F 1019.9 in WSW 3.7 mph 3.7 mph 52 % 0.0 in
21:40 7.3 °F -1.7 °F 1019.9 in NNW 3.7 mph 3.7 mph 53 % 0.0 in
21:45 7.4 °F -1.6 °F 1018.8 in NW 3.7 mph 3.7 mph 53 % 0.0 in
21:50 7.4 °F -1.6 °F 1018.8 in WSW 1.9 mph 2.3 mph 53 % 0.0 in
21:51 7.4 °F -1.6 °F 1018.8 in SW 3.7 mph 3.7 mph 53 % 0.0 in
21:55 9.6 °F 1.0 °F 1015.8 in West 12.9 mph 17.7 mph 55 % 0.0 in
22:05 9.7 °F 1.1 °F 1015.8 in West 12.9 mph 12.9 mph 55 % 0.0 in
22:06 7.3 °F -1.7 °F 1018.8 in NW 3.7 mph 3.7 mph 53 % 0.0 in
22:11 7.2 °F -1.8 °F 1018.8 in WNW 2.3 mph 2.3 mph 53 % 0.0 in
22:15 9.8 °F 1.2 °F 1015.8 in West 14.5 mph 20.9 mph 55 % 0.0 in
22:16 7.2 °F -1.8 °F 1018.8 in North 3.7 mph 3.7 mph 53 % 0.0 in
22:21 7.2 °F -1.5 °F 1018.8 in NW 1.9 mph   54 % 0.0 in
22:25 9.9 °F 1.3 °F 1014.8 in WSW 14.5 mph 27.4 mph 55 % 0.0 in
22:31 7.2 °F -1.5 °F 1018.8 in West 1.9 mph   54 % 0.0 in
22:35 9.9 °F 1.3 °F 1015.8 in WSW 12.9 mph 17.7 mph 55 % 0.0 in
22:36 7.1 °F -1.6 °F 1018.8 in WSW 1.9 mph   54 % 0.0 in
22:41 7.1 °F -1.6 °F 1018.8 in WSW 3.7 mph 3.7 mph 54 % 0.0 in
22:45 10.0 °F 1.4 °F 1015.8 in West 12.9 mph 19.3 mph 55 % 0.0 in
22:46 7.3 °F -1.4 °F 1018.8 in SSE 3.7 mph 3.7 mph 54 % 0.0 in
22:51 7.3 °F -1.4 °F 1018.8 in WNW 2.3 mph 2.3 mph 54 % 0.0 in
22:55 10.0 °F 1.4 °F 1014.8 in West 9.7 mph 14.5 mph 55 % 0.0 in
22:56 7.3 °F -1.4 °F 1018.8 in WSW 2.6 mph 2.6 mph 54 % 0.0 in
23:11 6.9 °F -1.8 °F 1017.8 in North 3.7 mph 3.7 mph 54 % 0.0 in
23:15 9.1 °F 0.5 °F 1015.8 in East 3.2 mph 9.7 mph 55 % 0.0 in
23:16 6.9 °F -1.6 °F 1017.8 in NNE 9.3 mph 9.3 mph 55 % 0.0 in
23:21 6.7 °F -1.7 °F 1017.8 in ENE 5.6 mph 5.6 mph 55 % 0.0 in
23:25 8.8 °F 0.2 °F 1015.8 in ENE 1.6 mph 3.2 mph 55 % 0.0 in
23:26 6.6 °F -1.8 °F 1017.8 in NNE 5.6 mph 5.6 mph 55 % 0.0 in
23:35 8.7 °F 0.2 °F 1015.8 in NE 3.2 mph 6.4 mph 55 % 0.0 in
23:41 6.4 °F -2.0 °F 1017.8 in North 4.7 mph 4.7 mph 55 % 0.0 in
23:45 8.4 °F -0.1 °F 1015.8 in NNE 1.6 mph 4.8 mph 55 % 0.0 in
23:46 6.4 °F -2.0 °F 1017.8 in North 5.6 mph 5.6 mph 55 % 0.0 in
23:51 6.4 °F -2.0 °F 1017.8 in NNE 5.8 mph 5.8 mph 55 % 0.0 in
23:55 8.2 °F -0.3 °F 1014.8 in NNE 1.6 mph 4.8 mph 55 % 0.0 in
23:56 6.5 °F -1.9 °F 1017.8 in NW 3.9 mph 3.9 mph 55 % 0.0 in
Meteo Sesrovires
Elogis d' Weather Underground - 3.5 mb

Guio original per  Jim McMurry - jmcmurry@mwt.net Adaptat per a la plantilla per  Wim van der Kuil - Leuven-Template.eu

Trobareu la nostra informacio del temps tambe a:

Weather Underground

AWEKAS